createdAt,value
2023-09-27T00:00:48.226Z,9.90
2023-09-27T00:03:14.888Z,9.67
2023-09-27T00:05:41.904Z,9.80
2023-09-27T00:08:09.306Z,10.83
2023-09-27T00:10:36.037Z,11.37
2023-09-27T00:13:03.628Z,12.00
2023-09-27T00:15:30.472Z,10.97
2023-09-27T00:17:57.095Z,11.40
2023-09-27T00:20:23.907Z,11.17
2023-09-27T00:22:50.522Z,11.23
2023-09-27T00:25:17.246Z,11.67
2023-09-27T00:27:43.997Z,10.20
2023-09-27T00:30:14.620Z,11.00
2023-09-27T00:32:42.362Z,11.43
2023-09-27T00:35:15.844Z,11.13
2023-09-27T00:37:42.640Z,11.83
2023-09-27T00:40:13.757Z,12.40
2023-09-27T00:42:40.440Z,12.97
2023-09-27T00:45:08.298Z,12.73
2023-09-27T00:47:36.592Z,12.90
2023-09-27T00:50:03.662Z,13.27
2023-09-27T00:52:30.969Z,12.77
2023-09-27T00:54:58.608Z,13.40
2023-09-27T00:57:25.962Z,13.80
2023-09-27T00:59:53.828Z,14.70
2023-09-27T01:02:20.744Z,13.60
2023-09-27T01:04:48.148Z,14.67
2023-09-27T01:07:14.721Z,14.27
2023-09-27T01:09:41.359Z,14.90
2023-09-27T01:12:08.650Z,14.50
2023-09-27T01:14:35.994Z,14.93
2023-09-27T01:17:12.111Z,15.47
2023-09-27T01:19:39.812Z,16.33
2023-09-27T01:22:06.492Z,14.80
2023-09-27T01:24:37.397Z,14.57
2023-09-27T01:27:06.574Z,16.23
2023-09-27T01:29:34.291Z,16.00
2023-09-27T01:32:01.121Z,15.70
2023-09-27T01:34:27.865Z,16.33
2023-09-27T01:36:55.629Z,17.07
2023-09-27T01:39:22.459Z,17.67
2023-09-27T01:41:49.032Z,17.33
2023-09-27T01:44:15.640Z,17.70
2023-09-27T01:46:42.345Z,16.60
2023-09-27T01:49:08.938Z,16.00
2023-09-27T01:51:35.555Z,14.97
2023-09-27T01:54:03.416Z,16.03
2023-09-27T01:56:30.159Z,15.03
2023-09-27T01:58:56.843Z,16.27
2023-09-27T02:01:23.542Z,17.17
2023-09-27T02:03:50.339Z,16.87
2023-09-27T02:06:17.002Z,17.50
2023-09-27T02:08:43.665Z,18.83
2023-09-27T02:11:10.318Z,18.80
2023-09-27T02:13:36.965Z,18.23
2023-09-27T02:16:03.791Z,17.73
2023-09-27T02:18:30.442Z,18.87
2023-09-27T02:20:57.076Z,19.73
2023-09-27T02:23:23.813Z,21.93
2023-09-27T02:25:59.967Z,21.03
2023-09-27T02:28:26.666Z,20.37
2023-09-27T02:30:53.226Z,19.73
2023-09-27T02:33:21.304Z,19.87
2023-09-27T02:35:47.863Z,20.10
2023-09-27T02:38:15.182Z,19.67
2023-09-27T02:40:43.234Z,19.63
2023-09-27T02:43:09.929Z,18.90
2023-09-27T02:45:36.599Z,19.57
2023-09-27T02:48:03.461Z,18.50
2023-09-27T02:50:30.154Z,17.63
2023-09-27T02:52:56.789Z,17.80
2023-09-27T02:55:23.456Z,17.43
2023-09-27T02:57:54.363Z,16.57
2023-09-27T03:00:22.673Z,17.37
2023-09-27T03:02:49.811Z,16.77
2023-09-27T03:05:16.800Z,16.80
2023-09-27T03:07:45.992Z,16.60
2023-09-27T03:10:12.991Z,16.43
2023-09-27T03:12:40.976Z,14.83
2023-09-27T03:15:13.741Z,15.90
2023-09-27T03:17:42.085Z,14.47
2023-09-27T03:20:27.917Z,14.43
2023-09-27T03:22:54.535Z,13.90
2023-09-27T03:25:21.136Z,12.73
2023-09-27T03:27:48.216Z,12.93
2023-09-27T03:30:15.885Z,12.33
2023-09-27T03:32:42.814Z,12.80
2023-09-27T03:35:10.000Z,11.93
2023-09-27T03:37:36.734Z,12.37
2023-09-27T03:40:05.101Z,11.30
2023-09-27T03:42:33.537Z,12.23
2023-09-27T03:45:00.555Z,12.17
2023-09-27T03:47:27.723Z,11.47
2023-09-27T03:49:54.530Z,11.30
2023-09-27T03:52:21.131Z,11.27
2023-09-27T03:54:47.690Z,11.13
2023-09-27T03:57:14.245Z,10.17
2023-09-27T03:59:40.874Z,10.53
2023-09-27T04:02:07.568Z,11.40
2023-09-27T04:04:34.445Z,10.23
2023-09-27T04:07:01.655Z,10.40
2023-09-27T04:09:28.275Z,10.73
2023-09-27T04:11:56.722Z,11.13
2023-09-27T04:14:23.641Z,10.67
2023-09-27T04:16:50.255Z,10.67
2023-09-27T04:19:16.825Z,11.10
2023-09-27T04:21:43.404Z,10.90
2023-09-27T04:24:10.010Z,10.30
2023-09-27T04:26:36.642Z,10.77
2023-09-27T04:29:07.799Z,11.60
2023-09-27T04:31:35.749Z,11.27
2023-09-27T04:34:02.549Z,11.23
2023-09-27T04:36:29.250Z,11.13
2023-09-27T04:38:55.826Z,11.70
2023-09-27T04:41:22.884Z,12.50
2023-09-27T04:43:50.024Z,12.53
2023-09-27T04:46:18.228Z,12.20
2023-09-27T04:48:45.940Z,12.47
2023-09-27T04:51:12.590Z,11.63
2023-09-27T04:53:39.650Z,12.60
2023-09-27T04:56:12.478Z,12.70
2023-09-27T04:58:40.354Z,12.70
2023-09-27T05:01:07.289Z,12.60
2023-09-27T05:03:34.790Z,12.80
2023-09-27T05:06:01.558Z,12.43
2023-09-27T05:08:28.190Z,12.67
2023-09-27T05:10:55.821Z,11.43
2023-09-27T05:13:22.960Z,13.07
2023-09-27T05:15:50.307Z,13.07
2023-09-27T05:18:17.352Z,14.20
2023-09-27T05:20:47.487Z,12.93
2023-09-27T05:23:14.152Z,13.53
2023-09-27T05:25:41.697Z,13.60
2023-09-27T05:28:08.451Z,12.60
2023-09-27T05:30:35.076Z,14.30
2023-09-27T05:33:01.793Z,13.03
2023-09-27T05:35:28.535Z,13.37
2023-09-27T05:37:55.137Z,12.67
2023-09-27T05:40:21.890Z,13.23
2023-09-27T05:42:48.490Z,13.13
2023-09-27T05:45:15.255Z,12.67
2023-09-27T05:47:42.372Z,13.23
2023-09-27T05:50:10.231Z,13.33
2023-09-27T05:52:37.137Z,12.77
2023-09-27T05:55:06.919Z,13.10
2023-09-27T05:57:34.073Z,12.53
2023-09-27T06:00:01.700Z,12.47
2023-09-27T06:02:32.663Z,12.43
2023-09-27T06:05:00.359Z,12.83
2023-09-27T06:07:27.194Z,11.23
2023-09-27T06:09:53.811Z,12.67
2023-09-27T06:12:20.459Z,13.13
2023-09-27T06:14:47.788Z,12.50
2023-09-27T06:17:17.231Z,12.70
2023-09-27T06:19:44.365Z,11.50
2023-09-27T06:22:14.542Z,12.03
2023-09-27T06:24:41.964Z,11.93
2023-09-27T06:27:09.070Z,12.43
2023-09-27T06:29:35.753Z,11.77
2023-09-27T06:32:03.041Z,11.10
2023-09-27T06:34:29.763Z,11.47
2023-09-27T06:36:57.805Z,12.27
2023-09-27T06:39:27.968Z,10.87
2023-09-27T06:41:56.074Z,11.50
2023-09-27T06:44:22.677Z,11.57
2023-09-27T06:46:50.757Z,10.67
2023-09-27T06:49:20.348Z,10.87
2023-09-27T06:51:47.007Z,10.70
2023-09-27T06:54:13.656Z,10.13
2023-09-27T06:56:41.620Z,10.60
2023-09-27T06:59:08.804Z,11.00
2023-09-27T07:01:35.694Z,9.87
2023-09-27T07:04:04.728Z,10.10
2023-09-27T07:06:31.425Z,10.60
2023-09-27T07:08:59.046Z,9.50
2023-09-27T07:11:26.153Z,9.87
2023-09-27T07:13:53.106Z,14.07
2023-09-27T07:16:28.002Z,9.63
2023-09-27T07:18:55.398Z,9.70
2023-09-27T07:21:22.597Z,9.03
2023-09-27T07:23:50.645Z,9.77
2023-09-27T07:26:17.470Z,10.87
2023-09-27T07:28:46.077Z,9.23
2023-09-27T07:31:15.607Z,9.60
2023-09-27T07:33:45.722Z,8.87
2023-09-27T07:36:12.710Z,9.37
2023-09-27T07:38:40.622Z,9.23
2023-09-27T07:41:09.714Z,8.53
2023-09-27T07:43:37.290Z,8.30
2023-09-27T07:46:07.798Z,8.80
2023-09-27T07:48:39.038Z,8.17
2023-09-27T07:51:18.298Z,7.80
2023-09-27T07:53:45.283Z,7.37
2023-09-27T07:56:20.861Z,8.17
2023-09-27T07:58:50.318Z,8.23
2023-09-27T08:01:21.705Z,8.50
2023-09-27T08:03:54.959Z,7.70
2023-09-27T08:06:22.885Z,7.40
2023-09-27T08:08:52.876Z,8.00
2023-09-27T08:11:19.740Z,8.33
2023-09-27T08:13:46.323Z,7.70
2023-09-27T08:16:12.965Z,8.73
2023-09-27T08:18:41.593Z,7.87
2023-09-27T08:21:08.484Z,8.77
2023-09-27T08:23:35.354Z,8.23
2023-09-27T08:26:02.012Z,7.77
2023-09-27T08:28:32.809Z,8.23
2023-09-27T08:31:00.299Z,7.93
2023-09-27T08:33:28.502Z,7.27
2023-09-27T08:35:56.988Z,7.53
2023-09-27T08:38:25.761Z,7.30
2023-09-27T08:40:52.716Z,7.67
2023-09-27T08:43:21.308Z,7.03
2023-09-27T08:45:48.384Z,6.90
2023-09-27T08:48:19.634Z,7.10
2023-09-27T08:50:47.325Z,7.30
2023-09-27T08:53:14.615Z,7.23
2023-09-27T08:55:47.137Z,6.70
2023-09-27T08:58:15.758Z,6.70
2023-09-27T09:00:43.972Z,6.45
2023-09-27T09:03:11.994Z,6.45
2023-09-27T09:05:40.218Z,6.45
2023-09-27T09:08:07.878Z,6.57
2023-09-27T09:10:34.771Z,6.20
2023-09-27T09:13:01.640Z,6.00
2023-09-27T09:15:41.717Z,5.68
2023-09-27T09:18:15.824Z,6.35
2023-09-27T09:21:00.972Z,6.25
2023-09-27T09:23:32.380Z,5.88
2023-09-27T09:26:00.093Z,5.70
2023-09-27T09:28:27.996Z,5.47
2023-09-27T09:30:57.738Z,5.38
2023-09-27T09:33:29.582Z,5.38
2023-09-27T09:35:57.400Z,5.15
2023-09-27T09:38:26.985Z,5.00
2023-09-27T09:40:55.777Z,4.80
2023-09-27T09:43:29.815Z,4.22
2023-09-27T09:45:56.771Z,4.70
2023-09-27T09:48:24.584Z,4.18
2023-09-27T09:50:51.895Z,4.38
2023-09-27T09:53:20.210Z,4.70
2023-09-27T09:56:09.682Z,4.75
2023-09-27T09:58:48.637Z,4.70
2023-09-27T10:01:22.253Z,4.95
2023-09-27T10:03:53.612Z,4.68
2023-09-27T10:06:32.577Z,4.60
2023-09-27T10:09:06.598Z,4.70
2023-09-27T10:11:37.960Z,6.00
2023-09-27T10:14:06.531Z,4.78
2023-09-27T10:16:34.087Z,5.30
2023-09-27T10:19:02.180Z,4.78
2023-09-27T10:21:28.760Z,5.15
2023-09-27T10:24:02.744Z,5.40
2023-09-27T10:26:37.504Z,5.00
2023-09-27T10:29:11.720Z,4.50
2023-09-27T10:31:58.427Z,4.93
2023-09-27T10:34:31.786Z,4.70
2023-09-27T10:37:14.911Z,3.88
2023-09-27T10:40:18.051Z,3.80
2023-09-27T10:42:44.612Z,4.47
2023-09-27T10:45:11.300Z,3.45
2023-09-27T10:47:38.072Z,4.35
2023-09-27T10:50:05.524Z,4.07
2023-09-27T10:52:32.290Z,4.20
2023-09-27T10:55:13.450Z,4.00
2023-09-27T10:57:41.732Z,4.70
2023-09-27T11:00:12.376Z,3.92
2023-09-27T11:02:39.547Z,4.13
2023-09-27T11:05:07.853Z,4.03
2023-09-27T11:07:49.313Z,4.20
2023-09-27T11:10:32.944Z,3.85
2023-09-27T11:13:13.565Z,3.97
2023-09-27T11:15:41.255Z,3.80
2023-09-27T11:18:08.917Z,4.40
2023-09-27T11:20:36.310Z,3.90
2023-09-27T11:23:03.680Z,3.80
2023-09-27T11:25:35.832Z,3.55
2023-09-27T11:28:03.343Z,3.50
2023-09-27T11:30:35.841Z,3.38
2023-09-27T11:33:07.980Z,3.00
2023-09-27T11:35:34.901Z,3.50
2023-09-27T11:38:10.760Z,4.45
2023-09-27T11:40:39.425Z,3.40
2023-09-27T11:43:06.854Z,3.47
2023-09-27T11:45:44.639Z,3.53
2023-09-27T11:48:11.577Z,3.58
2023-09-27T11:50:38.777Z,3.30
2023-09-27T11:53:05.957Z,3.28
2023-09-27T11:55:32.747Z,3.40
2023-09-27T11:58:00.728Z,3.92
2023-09-27T12:00:27.372Z,5.82
2023-09-27T12:02:57.927Z,3.67
2023-09-27T12:05:26.181Z,3.42
2023-09-27T12:07:53.782Z,3.40
2023-09-27T12:10:20.640Z,3.40
2023-09-27T12:12:47.289Z,4.50
2023-09-27T12:15:13.996Z,4.30
2023-09-27T12:17:40.762Z,4.55
2023-09-27T12:20:13.294Z,3.65
2023-09-27T12:22:45.870Z,4.18
2023-09-27T12:25:12.656Z,3.42
2023-09-27T12:27:39.330Z,3.25
2023-09-27T12:30:06.655Z,3.15
2023-09-27T12:32:33.407Z,3.78
2023-09-27T12:35:00.027Z,3.83
2023-09-27T12:37:26.952Z,5.97
2023-09-27T12:39:53.524Z,3.30
2023-09-27T12:42:20.104Z,3.78
2023-09-27T12:44:46.738Z,4.78
2023-09-27T12:47:15.314Z,4.63
2023-09-27T12:49:42.015Z,4.05
2023-09-27T12:52:08.608Z,3.60
2023-09-27T12:54:35.433Z,3.65
2023-09-27T12:57:02.094Z,3.42
2023-09-27T12:59:28.742Z,3.30
2023-09-27T13:01:55.773Z,3.05
2023-09-27T13:04:22.636Z,4.45
2023-09-27T13:06:49.572Z,3.10
2023-09-27T13:09:18.456Z,3.38
2023-09-27T13:11:45.629Z,4.10
2023-09-27T13:14:12.489Z,3.47
2023-09-27T13:16:39.113Z,3.55
2023-09-27T13:19:05.878Z,3.60
2023-09-27T13:21:32.477Z,3.85
2023-09-27T13:23:59.057Z,4.20
2023-09-27T13:26:27.035Z,3.88
2023-09-27T13:28:53.949Z,4.07
2023-09-27T13:31:20.723Z,3.85
2023-09-27T13:33:55.045Z,3.65
2023-09-27T13:36:30.549Z,3.90
2023-09-27T13:38:59.682Z,4.00
2023-09-27T13:41:29.203Z,3.53
2023-09-27T13:43:56.341Z,3.13
2023-09-27T13:46:23.292Z,3.78
2023-09-27T13:48:49.943Z,3.83
2023-09-27T13:51:17.775Z,3.75
2023-09-27T13:53:45.242Z,3.47
2023-09-27T13:56:11.874Z,3.58
2023-09-27T13:58:40.300Z,3.92
2023-09-27T14:01:06.951Z,3.90
2023-09-27T14:03:33.630Z,4.15
2023-09-27T14:06:00.663Z,3.80
2023-09-27T14:08:27.528Z,3.85
2023-09-27T14:10:54.209Z,3.63
2023-09-27T14:13:20.767Z,3.65
2023-09-27T14:15:47.413Z,3.72
2023-09-27T14:18:14.134Z,3.35
2023-09-27T14:20:40.890Z,3.42
2023-09-27T14:23:07.579Z,3.53
2023-09-27T14:25:34.249Z,3.30
2023-09-27T14:28:01.110Z,3.20
2023-09-27T14:30:27.776Z,3.15
2023-09-27T14:32:54.614Z,3.00
2023-09-27T14:35:21.948Z,3.13
2023-09-27T14:37:48.805Z,3.35
2023-09-27T14:40:15.616Z,2.90
2023-09-27T14:42:45.102Z,3.00
2023-09-27T14:47:42.395Z,3.35
2023-09-27T14:50:09.323Z,3.38
2023-09-27T14:52:36.002Z,3.33
2023-09-27T14:55:03.993Z,3.60
2023-09-27T14:57:30.613Z,3.20
2023-09-27T14:59:57.363Z,3.92
2023-09-27T15:02:24.127Z,3.63
2023-09-27T15:04:50.939Z,3.83
2023-09-27T15:07:20.512Z,3.63
2023-09-27T15:09:47.497Z,4.25
2023-09-27T15:12:14.156Z,3.90
2023-09-27T15:14:40.774Z,3.45
2023-09-27T15:17:08.946Z,3.60
2023-09-27T15:19:35.566Z,3.80
2023-09-27T15:22:04.729Z,3.45
2023-09-27T15:24:32.035Z,3.55
2023-09-27T15:26:58.812Z,3.58
2023-09-27T15:29:25.502Z,3.60
2023-09-27T15:31:53.084Z,3.47
2023-09-27T15:34:19.845Z,3.83
2023-09-27T15:36:47.238Z,3.60
2023-09-27T15:39:13.851Z,3.60
2023-09-27T15:41:40.409Z,3.70
2023-09-27T15:44:08.135Z,4.30
2023-09-27T15:46:41.359Z,3.70
2023-09-27T15:49:09.001Z,4.00
2023-09-27T15:51:38.802Z,3.90
2023-09-27T15:54:17.467Z,4.07
2023-09-27T15:56:44.874Z,4.20
2023-09-27T15:59:11.733Z,4.40
2023-09-27T16:01:38.977Z,4.53
2023-09-27T16:04:06.099Z,4.88
2023-09-27T16:06:32.711Z,4.78
2023-09-27T16:08:59.289Z,4.60
2023-09-27T16:11:32.427Z,5.10
2023-09-27T16:13:59.077Z,5.88
2023-09-27T16:16:26.178Z,6.00
2023-09-27T16:18:52.899Z,5.70
2023-09-27T16:21:20.761Z,8.52
2023-09-27T16:23:48.624Z,12.40
2023-09-27T16:26:15.748Z,9.95
2023-09-27T16:28:43.211Z,8.65
2023-09-27T16:31:12.415Z,8.38
2023-09-27T16:33:39.490Z,8.23
2023-09-27T16:36:07.415Z,8.38
2023-09-27T16:38:34.001Z,8.15
2023-09-27T16:41:00.682Z,8.23
2023-09-27T16:43:27.665Z,7.05
2023-09-27T16:45:54.326Z,8.73
2023-09-27T16:48:22.173Z,9.25
2023-09-27T16:50:48.853Z,11.20
2023-09-27T16:53:15.448Z,10.63
2023-09-27T16:55:45.458Z,10.00
2023-09-27T16:58:12.883Z,9.05
2023-09-27T17:00:43.015Z,8.10
2023-09-27T17:03:10.109Z,7.68
2023-09-27T17:05:36.820Z,7.70
2023-09-27T17:08:03.894Z,7.63
2023-09-27T17:10:30.520Z,8.05
2023-09-27T17:12:57.281Z,8.70
2023-09-27T17:15:24.216Z,8.57
2023-09-27T17:17:50.855Z,8.97
2023-09-27T17:20:20.515Z,8.70
2023-09-27T17:22:47.160Z,9.10
2023-09-27T17:25:13.889Z,8.73
2023-09-27T17:27:41.121Z,7.63
2023-09-27T17:30:08.387Z,8.53
2023-09-27T17:32:35.366Z,8.40
2023-09-27T17:35:02.145Z,8.33
2023-09-27T17:37:28.761Z,9.07
2023-09-27T17:39:55.428Z,9.33
2023-09-27T17:42:22.036Z,9.63
2023-09-27T17:44:49.288Z,8.90
2023-09-27T17:47:16.176Z,10.20
2023-09-27T17:49:43.201Z,10.10
2023-09-27T17:52:09.784Z,10.00
2023-09-27T17:54:36.422Z,8.37
2023-09-27T17:57:04.789Z,6.73
2023-09-27T17:59:31.580Z,6.80
2023-09-27T18:01:58.326Z,6.90
2023-09-27T18:04:27.130Z,6.77
2023-09-27T18:06:54.062Z,7.07
2023-09-27T18:09:20.682Z,7.70
2023-09-27T18:11:47.276Z,6.80
2023-09-27T18:14:13.909Z,6.80
2023-09-27T18:16:41.137Z,6.97
2023-09-27T18:19:08.945Z,7.37
2023-09-27T18:21:35.529Z,7.17
2023-09-27T18:24:02.111Z,7.20
2023-09-27T18:26:28.915Z,7.30
2023-09-27T18:28:55.663Z,8.27
2023-09-27T18:31:25.616Z,8.20
2023-09-27T18:33:52.569Z,7.67
2023-09-27T18:36:19.242Z,7.70
2023-09-27T18:38:45.831Z,7.60
2023-09-27T18:41:12.514Z,7.50
2023-09-27T18:43:39.140Z,7.17
2023-09-27T18:46:06.280Z,6.93
2023-09-27T18:48:33.108Z,7.20
2023-09-27T18:51:00.052Z,6.37
2023-09-27T18:53:27.141Z,6.30
2023-09-27T18:55:53.953Z,6.10
2023-09-27T18:58:20.588Z,5.87
2023-09-27T19:00:48.314Z,5.90
2023-09-27T19:03:16.589Z,5.00
2023-09-27T19:05:43.529Z,5.50
2023-09-27T19:08:11.986Z,5.30
2023-09-27T19:10:41.835Z,5.67
2023-09-27T19:13:08.939Z,5.10
2023-09-27T19:15:35.533Z,5.30
2023-09-27T19:18:02.286Z,5.17
2023-09-27T19:20:30.274Z,5.67
2023-09-27T19:22:58.347Z,5.53
2023-09-27T19:25:28.073Z,5.60
2023-09-27T19:27:54.951Z,5.30
2023-09-27T19:30:22.015Z,5.20
2023-09-27T19:32:48.992Z,5.03
2023-09-27T19:35:16.307Z,5.40
2023-09-27T19:37:43.409Z,5.53
2023-09-27T19:40:13.614Z,5.63
2023-09-27T19:42:43.580Z,5.00
2023-09-27T19:45:11.153Z,5.37
2023-09-27T19:47:37.853Z,5.30
2023-09-27T19:50:06.046Z,5.20
2023-09-27T19:52:33.822Z,5.17
2023-09-27T19:55:00.661Z,5.00
2023-09-27T19:57:27.344Z,5.30
2023-09-27T19:59:54.064Z,4.90
2023-09-27T20:02:21.040Z,5.30
2023-09-27T20:04:47.764Z,5.33
2023-09-27T20:07:14.955Z,5.60
2023-09-27T20:09:41.612Z,5.33
2023-09-27T20:12:08.361Z,5.37
2023-09-27T20:14:35.074Z,5.37
2023-09-27T20:17:01.680Z,5.27
2023-09-27T20:19:29.528Z,5.60
2023-09-27T20:21:56.842Z,6.33
2023-09-27T20:24:27.336Z,5.50
2023-09-27T20:26:54.107Z,6.07
2023-09-27T20:29:21.197Z,5.70
2023-09-27T20:31:48.019Z,6.00
2023-09-27T20:34:14.753Z,6.00
2023-09-27T20:36:42.193Z,6.20
2023-09-27T20:39:11.541Z,5.50
2023-09-27T20:41:38.238Z,6.20
2023-09-27T20:44:06.555Z,6.20
2023-09-27T20:46:33.357Z,6.10
2023-09-27T20:49:01.075Z,5.93
2023-09-27T20:51:27.938Z,5.77
2023-09-27T20:53:55.177Z,5.70
2023-09-27T20:56:22.006Z,5.67
2023-09-27T20:58:49.261Z,5.67
2023-09-27T21:01:41.221Z,5.57
2023-09-27T21:04:08.376Z,5.20
2023-09-27T21:06:35.238Z,5.43
2023-09-27T21:09:04.287Z,5.30
2023-09-27T21:11:31.631Z,5.50
2023-09-27T21:14:00.122Z,5.67
2023-09-27T21:16:29.033Z,5.70
2023-09-27T21:18:56.604Z,5.33
2023-09-27T21:21:23.767Z,5.00
2023-09-27T21:23:50.934Z,5.20
2023-09-27T21:26:17.658Z,5.30
2023-09-27T21:28:44.852Z,5.10
2023-09-27T21:31:14.621Z,5.37
2023-09-27T21:33:42.495Z,5.77
2023-09-27T21:36:09.794Z,6.00
2023-09-27T21:38:37.148Z,5.53
2023-09-27T21:41:04.355Z,5.90
2023-09-27T21:43:33.186Z,6.47
2023-09-27T21:45:59.943Z,6.40
2023-09-27T21:48:26.947Z,5.60
2023-09-27T21:50:53.584Z,6.67
2023-09-27T21:53:20.202Z,5.90
2023-09-27T21:55:46.811Z,6.00
2023-09-27T21:58:13.424Z,5.80
2023-09-27T22:00:40.010Z,5.20
2023-09-27T22:03:06.800Z,5.03
2023-09-27T22:05:34.100Z,5.80
2023-09-27T22:08:01.573Z,5.80
2023-09-27T22:10:35.286Z,5.57
2023-09-27T22:13:22.561Z,5.63
2023-09-27T22:15:59.493Z,5.27
2023-09-27T22:18:26.440Z,5.60
2023-09-27T22:20:55.043Z,5.60
2023-09-27T22:23:40.429Z,5.83
2023-09-27T22:26:16.083Z,5.87
2023-09-27T22:28:47.213Z,5.80
2023-09-27T22:31:15.298Z,6.00
2023-09-27T22:33:43.421Z,5.80
2023-09-27T22:36:11.117Z,5.97
2023-09-27T22:38:37.971Z,5.90
2023-09-27T22:41:17.084Z,6.20
2023-09-27T22:43:51.076Z,5.73
2023-09-27T22:46:20.457Z,6.00
2023-09-27T22:48:47.067Z,5.60
2023-09-27T22:51:15.510Z,5.57
2023-09-27T22:53:42.289Z,6.10
2023-09-27T22:56:09.000Z,6.00
2023-09-27T22:58:36.668Z,6.07
2023-09-27T23:01:23.987Z,6.20
2023-09-27T23:03:54.707Z,6.07
2023-09-27T23:06:24.570Z,5.90
2023-09-27T23:08:52.119Z,5.60
2023-09-27T23:11:20.515Z,5.53
2023-09-27T23:14:06.144Z,5.63
2023-09-27T23:16:56.315Z,6.27
2023-09-27T23:19:27.202Z,5.57
2023-09-27T23:21:57.616Z,5.57
2023-09-27T23:24:24.205Z,6.00
2023-09-27T23:27:03.580Z,5.70
2023-09-27T23:29:30.426Z,5.60
2023-09-27T23:32:23.703Z,5.90
2023-09-27T23:34:51.156Z,6.17
2023-09-27T23:37:19.404Z,5.90
2023-09-27T23:39:50.031Z,5.97
2023-09-27T23:42:24.472Z,6.00
2023-09-27T23:44:54.349Z,5.17
2023-09-27T23:47:24.953Z,6.13
2023-09-27T23:50:01.641Z,6.27
2023-09-27T23:52:29.580Z,5.83
2023-09-27T23:54:57.731Z,6.13
2023-09-27T23:57:28.545Z,6.57
2023-09-27T23:59:56.744Z,6.47
